createdAt,value
2024-02-04T00:00:19.812Z,61
2024-02-04T00:02:50.673Z,60
2024-02-04T00:05:21.146Z,56
2024-02-04T00:07:52.792Z,56
2024-02-04T00:10:26.793Z,60
2024-02-04T00:12:57.037Z,56
2024-02-04T00:15:27.886Z,60
2024-02-04T00:18:00.124Z,61
2024-02-04T00:20:30.251Z,52
2024-02-04T00:23:00.415Z,53
2024-02-04T00:25:32.380Z,56
2024-02-04T00:28:03.604Z,52
2024-02-04T00:30:34.099Z,52
2024-02-04T00:33:05.259Z,54
2024-02-04T00:35:35.718Z,52
2024-02-04T00:38:08.968Z,48
2024-02-04T00:40:39.389Z,49
2024-02-04T00:43:10.524Z,52
2024-02-04T00:45:41.413Z,52
2024-02-04T00:48:14.394Z,52
2024-02-04T00:50:45.218Z,52
2024-02-04T00:53:15.334Z,56
2024-02-04T00:55:53.829Z,52
2024-02-04T00:58:25.601Z,52
2024-02-04T01:01:05.202Z,52
2024-02-04T01:03:36.384Z,52
2024-02-04T01:06:06.894Z,48
2024-02-04T01:08:38.068Z,52
2024-02-04T01:11:15.038Z,48
2024-02-04T01:13:48.676Z,49
2024-02-04T01:16:19.302Z,46
2024-02-04T01:18:57.292Z,48
2024-02-04T01:21:27.533Z,48
2024-02-04T01:24:01.286Z,44
2024-02-04T01:26:32.160Z,50
2024-02-04T01:29:03.003Z,44
2024-02-04T01:31:33.405Z,49
2024-02-04T01:34:04.060Z,47
2024-02-04T01:36:35.296Z,48
2024-02-04T01:39:05.869Z,45
2024-02-04T01:41:36.554Z,56
2024-02-04T01:44:08.638Z,53
2024-02-04T01:46:40.639Z,52
2024-02-04T01:49:11.171Z,50
2024-02-04T01:51:41.853Z,46
2024-02-04T01:54:15.345Z,45
2024-02-04T01:56:47.811Z,48
2024-02-04T01:59:18.416Z,49
2024-02-04T02:01:48.473Z,48
2024-02-04T02:04:21.825Z,52
2024-02-04T02:06:53.766Z,48
2024-02-04T02:09:24.786Z,55
2024-02-04T02:11:55.642Z,52
2024-02-04T02:14:27.600Z,60
2024-02-04T02:16:58.248Z,56
2024-02-04T02:19:30.231Z,52
2024-02-04T02:22:00.457Z,52
2024-02-04T02:24:40.409Z,48
2024-02-04T02:27:14.013Z,48
2024-02-04T02:29:45.033Z,48
2024-02-04T02:32:18.050Z,48
2024-02-04T02:34:52.175Z,48
2024-02-04T02:37:23.119Z,48
2024-02-04T02:39:54.026Z,48
2024-02-04T02:42:25.199Z,48
2024-02-04T02:44:56.148Z,44
2024-02-04T02:47:27.247Z,47
2024-02-04T02:49:57.368Z,48
2024-02-04T02:52:28.394Z,48
2024-02-04T02:54:59.269Z,48
2024-02-04T02:57:32.214Z,44
2024-02-04T03:00:03.015Z,51
2024-02-04T03:02:36.517Z,54
2024-02-04T03:05:07.049Z,48
2024-02-04T03:07:38.569Z,48
2024-02-04T03:10:18.823Z,44
2024-02-04T03:12:51.076Z,40
2024-02-04T03:15:21.434Z,46
2024-02-04T03:17:53.182Z,45
2024-02-04T03:20:23.926Z,40
2024-02-04T03:23:03.472Z,44
2024-02-04T03:25:34.356Z,44
2024-02-04T03:28:05.476Z,39
2024-02-04T03:30:35.734Z,46
2024-02-04T03:33:08.205Z,45
2024-02-04T03:35:38.495Z,49
2024-02-04T03:38:09.388Z,50
2024-02-04T03:40:45.697Z,64
2024-02-04T03:43:20.155Z,59
2024-02-04T03:45:51.262Z,60
2024-02-04T03:48:22.533Z,61
2024-02-04T03:50:52.729Z,56
2024-02-04T03:53:23.638Z,60
2024-02-04T03:55:54.170Z,62
2024-02-04T03:58:25.294Z,66
2024-02-04T04:00:55.971Z,64
2024-02-04T04:03:27.652Z,61
2024-02-04T04:05:59.692Z,60
2024-02-04T04:08:30.353Z,59
2024-02-04T04:11:01.287Z,60
2024-02-04T04:13:31.656Z,59
2024-02-04T04:16:03.673Z,60
2024-02-04T04:18:34.285Z,59
2024-02-04T04:21:05.024Z,61
2024-02-04T04:23:35.793Z,58
2024-02-04T04:26:06.539Z,60
2024-02-04T04:28:41.020Z,60
2024-02-04T04:31:12.341Z,60
2024-02-04T04:33:43.397Z,57
2024-02-04T04:36:14.515Z,57
2024-02-04T04:38:52.500Z,56
2024-02-04T04:41:24.258Z,52
2024-02-04T04:43:56.479Z,52
2024-02-04T04:46:27.345Z,53
2024-02-04T04:48:58.607Z,59
2024-02-04T04:51:29.844Z,56
2024-02-04T04:54:00.648Z,53
2024-02-04T04:56:31.109Z,59
2024-02-04T04:59:02.061Z,59
2024-02-04T05:01:40.580Z,60
2024-02-04T05:04:14.518Z,57
2024-02-04T05:06:45.727Z,60
2024-02-04T05:09:16.636Z,59
2024-02-04T05:11:50.815Z,57
2024-02-04T05:14:21.824Z,55
2024-02-04T05:16:52.457Z,52
2024-02-04T05:19:23.257Z,52
2024-02-04T05:21:53.817Z,48
2024-02-04T05:24:33.205Z,52
2024-02-04T05:27:04.063Z,56
2024-02-04T05:29:35.213Z,56
2024-02-04T05:32:10.977Z,59
2024-02-04T05:34:42.416Z,61
2024-02-04T05:37:12.717Z,62
2024-02-04T05:39:43.318Z,60
2024-02-04T05:42:18.081Z,60
2024-02-04T05:44:48.871Z,60
2024-02-04T05:47:20.644Z,60
2024-02-04T05:49:51.528Z,60
2024-02-04T05:52:25.554Z,56
2024-02-04T05:54:57.078Z,55
2024-02-04T05:57:31.567Z,56
2024-02-04T06:00:06.910Z,58
2024-02-04T06:02:41.967Z,59
2024-02-04T06:05:12.548Z,60
2024-02-04T06:07:46.738Z,60
2024-02-04T06:10:17.556Z,60
2024-02-04T06:12:50.740Z,60
2024-02-04T06:15:21.753Z,63
2024-02-04T06:17:56.895Z,68
2024-02-04T06:20:27.184Z,61
2024-02-04T06:22:57.384Z,60
2024-02-04T06:25:31.172Z,60
2024-02-04T06:28:01.847Z,60
2024-02-04T06:30:31.981Z,61
2024-02-04T06:33:02.662Z,63
2024-02-04T06:35:33.517Z,62
2024-02-04T06:38:04.214Z,60
2024-02-04T06:40:37.742Z,60
2024-02-04T06:43:08.070Z,68
2024-02-04T06:45:41.537Z,62
2024-02-04T06:48:13.989Z,59
2024-02-04T06:50:44.688Z,66
2024-02-04T06:53:14.942Z,65
2024-02-04T06:55:45.852Z,62
2024-02-04T06:58:16.739Z,64
2024-02-04T07:00:49.404Z,58
2024-02-04T07:03:19.284Z,56
2024-02-04T07:05:50.187Z,56
2024-02-04T07:08:20.690Z,53
2024-02-04T07:10:50.981Z,49
2024-02-04T07:13:21.657Z,52
2024-02-04T07:15:52.514Z,62
2024-02-04T07:18:26.821Z,88
2024-02-04T07:21:04.163Z,83
2024-02-04T07:23:35.398Z,68
2024-02-04T07:26:06.195Z,69
2024-02-04T07:28:40.140Z,77
2024-02-04T07:31:11.219Z,73
2024-02-04T07:33:43.451Z,69
2024-02-04T07:36:13.784Z,79
2024-02-04T07:38:45.136Z,79
2024-02-04T07:41:15.951Z,76
2024-02-04T07:43:46.327Z,74
2024-02-04T07:46:18.997Z,76
2024-02-04T07:48:50.885Z,80
2024-02-04T07:51:22.185Z,91
2024-02-04T07:53:53.739Z,104
2024-02-04T07:56:24.810Z,110
2024-02-04T07:58:56.398Z,105
2024-02-04T08:01:29.143Z,94
2024-02-04T08:04:04.212Z,78
2024-02-04T08:06:34.614Z,68
2024-02-04T08:09:06.935Z,74
2024-02-04T08:11:38.514Z,72
2024-02-04T08:14:12.805Z,75
2024-02-04T08:16:44.351Z,76
2024-02-04T08:19:17.049Z,62
2024-02-04T08:21:51.914Z,68
2024-02-04T08:24:22.134Z,73
2024-02-04T08:26:52.416Z,69
2024-02-04T08:29:23.369Z,73
2024-02-04T08:31:53.542Z,68
2024-02-04T08:34:24.322Z,57
2024-02-04T08:37:01.075Z,60
2024-02-04T08:39:29.607Z,60
2024-02-04T08:41:59.799Z,60
2024-02-04T08:50:33.033Z,56
2024-02-04T08:53:19.072Z,58
2024-02-04T08:55:54.404Z,59
2024-02-04T08:58:24.774Z,60
2024-02-04T09:00:54.894Z,57
2024-02-04T09:03:31.557Z,63
2024-02-04T09:06:02.581Z,71
2024-02-04T09:08:33.114Z,71
2024-02-04T09:11:03.976Z,73
2024-02-04T09:13:36.447Z,68
2024-02-04T09:16:06.866Z,64
2024-02-04T09:18:37.876Z,62
2024-02-04T09:21:16.955Z,59
2024-02-04T09:23:47.465Z,72
2024-02-04T09:26:19.827Z,71
2024-02-04T09:28:50.370Z,56
2024-02-04T09:31:29.982Z,55
2024-02-04T09:33:59.973Z,52
2024-02-04T09:36:31.393Z,44
2024-02-04T09:39:02.122Z,35
2024-02-04T09:41:32.535Z,24
2024-02-04T09:44:05.958Z,29
2024-02-04T09:46:39.911Z,27
2024-02-04T09:49:10.959Z,27
2024-02-04T09:51:41.923Z,28
2024-02-04T09:54:13.645Z,30
2024-02-04T09:56:44.262Z,32
2024-02-04T09:59:14.512Z,32
2024-02-04T10:01:44.878Z,36
2024-02-04T10:04:15.661Z,36
2024-02-04T10:06:46.071Z,32
2024-02-04T10:09:19.360Z,32
2024-02-04T10:11:52.792Z,32
2024-02-04T10:14:24.040Z,24
2024-02-04T10:16:55.052Z,20
2024-02-04T10:19:27.425Z,20
2024-02-04T10:22:03.181Z,14
2024-02-04T10:24:37.323Z,12
2024-02-04T10:27:13.505Z,13
2024-02-04T10:29:45.996Z,16
2024-02-04T10:32:22.620Z,19
2024-02-04T10:34:51.096Z,16
2024-02-04T10:37:23.913Z,13
2024-02-04T10:39:58.998Z,16
2024-02-04T10:42:37.167Z,16
2024-02-04T10:45:09.810Z,16
2024-02-04T10:47:43.955Z,20
2024-02-04T10:50:17.201Z,17
2024-02-04T10:52:49.281Z,16
2024-02-04T10:55:19.455Z,20
2024-02-04T10:57:49.938Z,20
2024-02-04T11:00:21.177Z,24
2024-02-04T11:02:52.197Z,18
2024-02-04T11:05:27.041Z,20
2024-02-04T11:07:58.221Z,23
2024-02-04T11:10:28.592Z,37
2024-02-04T11:12:59.694Z,27
2024-02-04T11:15:30.359Z,36
2024-02-04T11:18:03.797Z,44
2024-02-04T11:20:37.788Z,32
2024-02-04T11:23:10.798Z,28
2024-02-04T11:25:46.094Z,20
2024-02-04T11:28:16.394Z,21
2024-02-04T11:30:48.377Z,24
2024-02-04T11:33:22.352Z,28
2024-02-04T11:35:56.598Z,24
2024-02-04T11:38:27.579Z,24
2024-02-04T11:41:03.133Z,24
2024-02-04T11:43:37.062Z,28
2024-02-04T11:46:08.485Z,20
2024-02-04T11:48:37.348Z,26
2024-02-04T11:51:08.109Z,24
2024-02-04T11:53:38.365Z,27
2024-02-04T11:56:08.812Z,27
2024-02-04T11:58:39.306Z,20
2024-02-04T12:01:13.108Z,12
2024-02-04T12:03:42.401Z,12
2024-02-04T12:06:12.481Z,8
2024-02-04T12:08:43.896Z,11
2024-02-04T12:11:17.637Z,16
2024-02-04T12:13:47.753Z,8
2024-02-04T12:16:22.538Z,8
2024-02-04T12:18:55.260Z,8
2024-02-04T12:21:28.698Z,16
2024-02-04T12:23:58.994Z,10
2024-02-04T12:26:29.369Z,8
2024-02-04T12:28:59.562Z,8
2024-02-04T12:31:31.481Z,8
2024-02-04T12:34:02.252Z,8
2024-02-04T12:36:36.543Z,11
2024-02-04T12:39:07.651Z,8
2024-02-04T12:41:38.038Z,8
2024-02-04T12:44:13.439Z,10
2024-02-04T12:46:50.832Z,4
2024-02-04T12:49:21.422Z,4
2024-02-04T12:51:50.887Z,4
2024-02-04T12:54:27.189Z,4
2024-02-04T12:56:59.013Z,4
2024-02-04T12:59:31.203Z,8
2024-02-04T13:02:05.044Z,8
2024-02-04T13:04:37.166Z,4
2024-02-04T13:07:07.283Z,7
2024-02-04T13:09:41.437Z,4
2024-02-04T13:12:15.624Z,4
2024-02-04T13:14:45.969Z,7
2024-02-04T13:17:16.268Z,8
2024-02-04T13:19:47.429Z,8
2024-02-04T13:22:18.365Z,8
2024-02-04T13:24:48.929Z,8
2024-02-04T13:27:19.576Z,16
2024-02-04T13:29:50.329Z,8
2024-02-04T13:32:22.264Z,8
2024-02-04T13:35:02.805Z,10
2024-02-04T13:37:34.511Z,6
2024-02-04T13:40:06.557Z,8
2024-02-04T13:42:37.471Z,8
2024-02-04T13:45:11.831Z,8
2024-02-04T13:47:43.189Z,7
2024-02-04T13:50:15.906Z,10
2024-02-04T13:52:46.079Z,8
2024-02-04T13:55:16.394Z,8
2024-02-04T13:57:47.490Z,12
2024-02-04T14:00:18.602Z,14
2024-02-04T14:02:48.731Z,9
2024-02-04T14:05:20.043Z,13
2024-02-04T14:07:51.075Z,12
2024-02-04T14:10:27.425Z,12
2024-02-04T14:12:59.997Z,12
2024-02-04T14:15:30.193Z,15
2024-02-04T14:18:00.626Z,12
2024-02-04T14:20:31.993Z,16
2024-02-04T14:23:02.698Z,16
2024-02-04T14:25:34.909Z,16
2024-02-04T14:28:06.672Z,16
2024-02-04T14:30:39.234Z,16
2024-02-04T14:33:09.666Z,16
2024-02-04T14:35:44.059Z,20
2024-02-04T14:38:15.379Z,16
2024-02-04T14:40:46.695Z,16
2024-02-04T14:43:17.928Z,20
2024-02-04T14:45:51.835Z,22
2024-02-04T14:48:23.108Z,20
2024-02-04T14:50:57.329Z,20
2024-02-04T14:53:28.277Z,20
2024-02-04T14:55:58.724Z,20
2024-02-04T14:58:33.074Z,24
2024-02-04T15:01:12.437Z,23
2024-02-04T15:03:52.051Z,21
2024-02-04T15:06:23.976Z,20
2024-02-04T15:08:54.007Z,22
2024-02-04T15:11:25.255Z,20
2024-02-04T15:13:55.747Z,20
2024-02-04T15:16:35.355Z,20
2024-02-04T15:19:06.304Z,22
2024-02-04T15:21:37.357Z,20
2024-02-04T15:24:08.207Z,24
2024-02-04T15:26:39.073Z,18
2024-02-04T15:29:13.956Z,20
2024-02-04T15:31:44.800Z,21
2024-02-04T15:34:16.358Z,21
2024-02-04T15:36:55.411Z,20
2024-02-04T15:39:35.174Z,24
2024-02-04T15:42:07.958Z,32
2024-02-04T15:44:44.153Z,24
2024-02-04T15:47:14.957Z,36
2024-02-04T15:49:44.480Z,31
2024-02-04T15:52:14.743Z,39
2024-02-04T15:54:44.778Z,48
2024-02-04T15:57:15.224Z,44
2024-02-04T15:59:45.405Z,43
2024-02-04T16:02:24.951Z,41
2024-02-04T16:04:56.286Z,46
2024-02-04T16:07:26.495Z,40
2024-02-04T16:09:59.559Z,36
2024-02-04T16:12:29.825Z,42
2024-02-04T16:14:59.792Z,40
2024-02-04T16:17:31.972Z,39
2024-02-04T16:20:05.038Z,40
2024-02-04T16:22:39.449Z,40
2024-02-04T16:25:10.028Z,36
2024-02-04T16:27:44.016Z,32
2024-02-04T16:30:15.635Z,36
2024-02-04T16:32:52.089Z,36
2024-02-04T16:35:21.698Z,32
2024-02-04T16:37:52.279Z,31
2024-02-04T16:40:25.735Z,31
2024-02-04T16:42:55.788Z,32
2024-02-04T16:45:26.652Z,31
2024-02-04T16:47:57.620Z,37
2024-02-04T16:50:30.327Z,34
2024-02-04T16:55:45.105Z,31
2024-02-04T16:58:15.465Z,32
2024-02-04T17:00:49.529Z,43
2024-02-04T17:03:20.015Z,44
2024-02-04T17:05:55.959Z,38
2024-02-04T17:08:28.661Z,39
2024-02-04T17:10:59.621Z,43
2024-02-04T17:13:30.036Z,44
2024-02-04T17:16:01.098Z,44
2024-02-04T17:18:32.157Z,44
2024-02-04T17:21:07.817Z,40
2024-02-04T17:23:41.205Z,43
2024-02-04T17:26:11.837Z,40
2024-02-04T17:28:41.950Z,44
2024-02-04T17:31:17.333Z,44
2024-02-04T17:33:49.586Z,56
2024-02-04T17:36:19.733Z,84
2024-02-04T17:38:48.188Z,90
2024-02-04T17:41:21.559Z,97
2024-02-04T17:43:51.545Z,94
2024-02-04T17:46:22.187Z,96
2024-02-04T17:48:52.300Z,85
2024-02-04T17:51:27.569Z,85
2024-02-04T17:53:57.851Z,80
2024-02-04T17:56:33.510Z,73
2024-02-04T17:59:04.218Z,71
2024-02-04T18:01:37.477Z,66
2024-02-04T18:04:06.138Z,56
2024-02-04T18:06:36.447Z,48
2024-02-04T18:09:08.514Z,44
2024-02-04T18:11:42.024Z,44
2024-02-04T18:14:13.288Z,44
2024-02-04T18:16:46.895Z,40
2024-02-04T18:19:17.129Z,44
2024-02-04T18:21:57.587Z,36
2024-02-04T18:24:33.033Z,36
2024-02-04T18:27:04.509Z,36
2024-02-04T18:29:34.578Z,56
2024-02-04T18:32:06.696Z,77
2024-02-04T18:34:37.349Z,72
2024-02-04T18:37:09.520Z,56
2024-02-04T18:39:40.480Z,52
2024-02-04T18:42:09.230Z,52
2024-02-04T18:44:39.143Z,52
2024-02-04T18:47:10.028Z,56
2024-02-04T18:49:40.735Z,56
2024-02-04T18:52:15.092Z,53
2024-02-04T18:54:47.469Z,56
2024-02-04T18:57:21.872Z,57
2024-02-04T18:59:52.171Z,56
2024-02-04T19:02:20.942Z,59
2024-02-04T19:05:03.139Z,77
2024-02-04T19:07:34.230Z,88
2024-02-04T19:10:07.571Z,92
2024-02-04T19:12:38.495Z,84
2024-02-04T19:15:08.469Z,86
2024-02-04T19:17:41.052Z,81
2024-02-04T19:20:08.451Z,85
2024-02-04T19:22:39.074Z,83
2024-02-04T19:25:09.340Z,109
2024-02-04T19:27:40.057Z,116
2024-02-04T19:30:11.210Z,115
2024-02-04T19:32:41.846Z,108
2024-02-04T19:35:18.821Z,87
2024-02-04T19:37:48.874Z,100
2024-02-04T19:40:22.688Z,106
2024-02-04T19:42:56.156Z,116
2024-02-04T19:45:26.696Z,112
2024-02-04T19:47:57.038Z,116
2024-02-04T19:50:27.099Z,110
2024-02-04T19:52:57.491Z,115
2024-02-04T19:55:26.051Z,103
2024-02-04T19:58:03.159Z,107
2024-02-04T20:00:35.356Z,100
2024-02-04T20:03:05.720Z,104
2024-02-04T20:05:37.076Z,98
2024-02-04T20:08:14.255Z,103
2024-02-04T20:10:46.861Z,109
2024-02-04T20:13:21.719Z,129
2024-02-04T20:15:55.651Z,132
2024-02-04T20:18:26.566Z,131
2024-02-04T20:20:57.087Z,122
2024-02-04T20:23:27.263Z,129
2024-02-04T20:26:07.637Z,120
2024-02-04T20:28:41.863Z,119
2024-02-04T20:31:17.366Z,127
2024-02-04T20:33:47.904Z,127
2024-02-04T20:36:21.031Z,130
2024-02-04T20:38:51.102Z,145
2024-02-04T20:41:21.621Z,146
2024-02-04T20:43:53.378Z,143
2024-02-04T20:46:24.478Z,150
2024-02-04T20:49:02.568Z,143
2024-02-04T20:51:33.226Z,131
2024-02-04T20:54:07.115Z,131
2024-02-04T20:56:38.222Z,133
2024-02-04T20:59:12.713Z,125
2024-02-04T21:01:53.541Z,128
2024-02-04T21:04:28.614Z,132
2024-02-04T21:06:58.493Z,128
2024-02-04T21:09:29.826Z,129
2024-02-04T21:12:00.597Z,127
2024-02-04T21:14:31.689Z,124
2024-02-04T21:17:04.152Z,123
2024-02-04T21:19:37.631Z,130
2024-02-04T21:22:10.119Z,137
2024-02-04T21:24:44.659Z,108
2024-02-04T21:27:19.627Z,99
2024-02-04T21:29:49.807Z,95
2024-02-04T21:32:20.754Z,91
2024-02-04T21:34:52.186Z,96
2024-02-04T21:37:28.276Z,107
2024-02-04T21:39:58.805Z,104
2024-02-04T21:42:30.643Z,107
2024-02-04T21:44:59.546Z,119
2024-02-04T21:47:28.616Z,124
2024-02-04T21:50:04.111Z,120
2024-02-04T21:52:36.356Z,116
2024-02-04T21:55:07.195Z,111
2024-02-04T21:57:38.730Z,115
2024-02-04T22:00:09.244Z,119
2024-02-04T22:02:40.160Z,109
2024-02-04T22:05:13.673Z,105
2024-02-04T22:07:48.199Z,105
2024-02-04T22:10:22.472Z,106
2024-02-04T22:12:54.674Z,104
2024-02-04T22:15:28.943Z,115
2024-02-04T22:18:03.464Z,111
2024-02-04T22:20:39.069Z,95
2024-02-04T22:23:10.398Z,97
2024-02-04T22:25:40.983Z,101
2024-02-04T22:28:13.117Z,106
2024-02-04T22:30:44.399Z,111
2024-02-04T22:33:17.466Z,98
2024-02-04T22:35:46.347Z,103
2024-02-04T22:38:20.735Z,87
2024-02-04T22:40:51.803Z,89
2024-02-04T22:43:22.036Z,92
2024-02-04T22:46:02.619Z,93
2024-02-04T22:48:33.431Z,93
2024-02-04T22:51:04.944Z,94
2024-02-04T22:53:33.977Z,86
2024-02-04T22:56:09.296Z,88
2024-02-04T22:58:40.295Z,81
2024-02-04T23:01:11.273Z,83
2024-02-04T23:03:41.476Z,70
2024-02-04T23:06:17.840Z,74
2024-02-04T23:08:46.695Z,78
2024-02-04T23:11:16.815Z,83
2024-02-04T23:13:47.743Z,86
2024-02-04T23:16:18.451Z,88
2024-02-04T23:18:49.002Z,84
2024-02-04T23:21:22.969Z,76
2024-02-04T23:23:54.892Z,72
2024-02-04T23:26:26.804Z,68
2024-02-04T23:29:02.481Z,68
2024-02-04T23:31:35.485Z,64
2024-02-04T23:34:07.357Z,68
2024-02-04T23:36:38.986Z,74
2024-02-04T23:39:09.949Z,72
2024-02-04T23:41:41.043Z,73
2024-02-04T23:44:14.787Z,84
2024-02-04T23:46:46.195Z,96
2024-02-04T23:49:17.470Z,92
2024-02-04T23:51:53.195Z,90
2024-02-04T23:54:24.701Z,92
2024-02-04T23:57:04.996Z,96
2024-02-04T23:59:35.674Z,94
